UNR Ag. Experiment Farm, Sparks, Nevada Weather observations

Data are for 10 minute period ending at time listed.
 Day   Time   Solar   Ave.   Ave.  Ave.  Vector  Max.   Baro.   Total    
  of    of     Rad.   Air    Rel.  Wind   Wind   Wind  Press.  Precip.   
Year   Day            Temp.  Hum.  Speed  Dir.   Gust                    
2016   (PST)  Kw/m2    F      %     mph   deg.    mph    mb.     in.     
-------------------------------------------------------------------------
 237    9:20   0.58   71.8    27    1.1   304     3.0   870.9    0.00 
 237    9:30   0.60   72.7    27    0.9   335     2.1   871.0    0.00 
 237    9:40   0.63   74.5    25    0.9   354     2.8   870.9    0.00 
 237    9:50   0.65   76.1    22    0.6    68     2.6   870.8    0.00 
 237   10:00   0.67   77.3    23    0.9   343     2.9   870.7    0.00 
 237   10:10   0.68   77.0    22    1.5    21     3.4   870.7    0.00 
 237   10:20   0.70   77.0    22    1.5   351     3.3   870.7    0.00 
 237   10:30   0.71   77.6    22    1.8    24     3.2   870.5    0.00 
 237   10:40   0.73   78.3    20    1.9    13     4.1   870.4    0.00 
 237   10:50   0.75   78.4    17    1.3   316     2.9   870.3    0.00 
 237   11:00   0.76   78.6    18    2.0   311     3.8   870.1    0.00 
 237   11:10   0.77   79.6    20    2.9    45     6.3   869.9    0.00 
 237   11:20   0.78   80.2    16    2.7    33     6.3   869.8    0.00 
 237   11:30   0.78   81.6    18    2.0    66     5.4   869.6    0.00 
 237   11:40   0.79   82.7    13    4.2   126     7.5   869.3    0.00 
 237   11:50   0.80   82.9    14    3.6    76     7.4   869.2    0.00 
 237   12:00   0.80   82.6    17    4.2    45     7.3   869.0    0.00 
 237   12:10   0.80   82.4    15    3.0    51     9.0   868.9    0.00 
 237   12:20   0.80   82.7    18    3.8    22     6.3   868.8    0.00 
 237   12:30   0.80   82.8    18    4.7    38     9.2   868.6    0.00 
 237   12:40   0.80   82.6    19    3.6    16     6.5   868.5    0.00 
 237   12:50   0.79   83.4    19    3.0    17     6.1   868.3    0.00 
 237   13:00   0.79   83.4    19    6.9    27    11.9   868.3    0.00 
 237   13:10   0.78   83.1    15    6.0    38    11.0   868.2    0.00 
 237   13:20   0.77   84.2    18    4.9    52     8.5   868.0    0.00 
 237   13:30   0.76   84.2    17    4.2    23     8.3   867.8    0.00 
 237   13:40   0.75   85.9    13    2.6    68     6.8   867.7    0.00 
 237   13:50   0.74   86.1    12    4.6    76     8.6   867.5    0.00 
 237   14:00   0.72   86.3    14    3.4    66     5.8   867.4    0.00 
 237   14:10   0.71   86.6    11    1.5     4     4.7   867.3    0.00 
 237   14:20   0.69   86.9    12    2.7   358    12.1   867.1    0.00 
 237   14:30   0.68   87.1    11    3.2   232     6.6   866.9    0.00 
 237   14:40   0.66   88.3    10    5.9   251    14.6   866.9    0.00 
 237   14:50   0.64   87.3    12    9.6   270    18.5   866.7    0.00 
 237   15:00   0.62   85.0    13   10.2   283    15.7   866.7    0.00 
 237   15:10   0.60   86.1    12    8.6   272    15.3   866.7    0.00 
 237   15:20   0.57   86.1    12    9.6   272    18.8   866.7    0.00 
 237   15:30   0.55   85.9    12    8.2   274    13.8   866.6    0.00 
 237   15:40   0.52   86.9    10   10.8   257    16.7   866.6    0.00 
 237   15:50   0.50   86.5    11   11.5   262    16.0   866.6    0.00 
 237   16:00   0.47   86.6    11   12.1   259    18.9   866.6    0.00 
 237   16:10   0.44   86.3    11   11.6   260    18.0   866.6    0.00 
 237   16:20   0.42   86.4    10   10.8   255    18.2   866.6    0.00 
 237   16:30   0.39   84.9    12   11.8   268    18.0   866.6    0.00 
 237   16:40   0.36   85.3    11   12.0   261    18.7   866.6    0.00 
 237   16:50   0.33   84.4    12   11.6   264    18.0   866.6    0.00 
 237   17:00   0.30   83.1    13   11.4   279    17.5   866.5    0.00 
 237   17:10   0.27   83.3    11   12.4   266    19.5   866.5    0.00 
 237   17:20   0.24   82.4    12   11.0   277    15.9   866.4    0.00 
 237   17:30   0.21   82.7    11   12.7   265    20.0   866.4    0.00 
 237   17:40   0.19   82.9    11   11.1   262    19.6   866.5    0.00 
 237   17:50   0.16   81.6    12   10.3   272    16.6   866.6    0.00 
 237   18:00   0.13   80.9    12   11.7   271    18.3   866.6    0.00 
 237   18:10   0.10   80.5    12   10.7   269    16.0   866.7    0.00 
 237   18:20   0.08   79.5    13    9.5   271    13.2   866.7    0.00 
 237   18:30   0.05   78.6    14    8.5   277    14.5   866.8    0.00 
 237   18:40   0.01   78.2    13    9.9   278    15.2   866.9    0.00 
 237   18:50   0.00   77.0    14   10.4   276    17.8   866.8    0.00 
 237   19:00   0.00   77.5    14   11.5   274    16.4   866.8    0.00 
 237   19:10   0.00   76.8    14    9.0   267    12.4   866.9    0.00 
 237   19:20   0.00   77.0    13    8.2   258    15.0   867.0    0.00 
 237   19:30   0.00   76.9    13    8.1   254    14.3   867.1    0.00 
 237   19:40   0.00   76.1    14    5.6   232    10.2   867.1    0.00 
 237   19:50   0.00   74.4    14    4.0   208     9.5   867.3    0.00 
 237   20:00   0.00   72.7    15    3.9   227     7.7   867.3    0.00 
 237   20:10   0.00   71.3    18    1.4   306     3.4   867.3    0.00 
 237   20:20   0.00   68.3    23    3.9    25     7.1   867.3    0.00 
 237   20:30   0.00   64.9    28    5.1   357     8.0   867.3    0.00 
 237   20:40   0.00   68.1    22    3.5   314     4.8   867.1    0.00 
 237   20:50   0.00   66.3    26    4.2   335     5.3   867.1    0.00 
 237   21:00   0.00   64.3    27    1.9   295     4.7   867.0    0.00 
 237   21:10   0.00   64.4    26    1.3    66     3.1   867.1    0.00 
 237   21:20   0.00   63.5    29    3.1    53     4.2   867.2    0.00 
 237   21:30   0.00   64.3    27    3.5   353     6.5   867.2    0.00 
 237   21:40   0.00   65.9    24    3.9   326     6.5   867.2    0.00 
 237   21:50   0.00   65.9    24    3.0   325     4.8   867.2    0.00 
 237   22:00   0.00   64.1    28    2.0    83     3.1   867.3    0.00 
 237   22:10   0.00   60.0    30    2.1   108     3.1   867.3    0.00 
 237   22:20   0.00   61.4    32    2.9    59     4.3   867.2    0.00 
 237   22:30   0.00   60.6    34    1.8     3     4.9   867.2    0.00 
 237   22:40   0.00   64.1    27    2.4   350     3.9   867.2    0.00 
 237   22:50   0.00   62.9    30    1.8   316     3.2   867.2    0.00 
 237   23:00   0.00   59.4    35    1.6   106     4.2   867.2    0.00 
 237   23:10   0.00   59.5    32    2.0   159     2.9   867.2    0.00 
 237   23:20   0.00   57.9    35    2.5   185     3.1   867.1    0.00 
 237   23:30   0.00   57.7    39    3.2   162     4.0   867.1    0.00 
 237   23:40   0.00   54.4    47    2.4   191     4.3   867.1    0.00 
 237   23:50   0.00   52.6    52    1.8    16     5.0   867.3    0.00 
 238    0:00   0.00   52.3    52    1.1   267     3.2   867.3    0.00 
 238    0:10   0.00   52.8    58    0.9   319     2.7   867.4    0.00 
 238    0:20   0.00   52.6    54    1.8   180     3.3   867.5    0.00 
 238    0:30   0.00   53.3    48    3.1   195     4.3   867.4    0.00 
 238    0:40   0.00   51.3    54    3.4   178     3.9   867.4    0.00 
 238    0:50   0.00   49.7    55    4.1   213     5.6   867.4    0.00 
 238    1:00   0.00   51.0    51    4.2   216     5.0   867.4    0.00 
 238    1:10   0.00   51.5    51    1.1   201     3.8   867.4    0.00 
 238    1:20   0.00   49.9    52    1.8   137     3.0   867.4    0.00 
 238    1:30   0.00   54.0    42    2.0   121     3.1   867.4    0.00 
 238    1:40   0.00   53.0    48    2.4   252     4.5   867.4    0.00 
 238    1:50   0.00   49.1    57    2.1   121     5.0   867.4    0.00 
 238    2:00   0.00   49.0    55    0.4    46     2.1   867.5    0.00 
 238    2:10   0.00   49.2    56    0.7    36     2.3   867.6    0.00 
 238    2:20   0.00   51.5    50    1.2    37     2.4   867.6    0.00 
 238    2:30   0.00   48.0    55    1.1   199     2.6   867.6    0.00 
 238    2:40   0.00   46.5    57    3.0   184     4.2   867.6    0.00 
 238    2:50   0.00   43.9    66    0.5   114     3.1   867.7    0.00 
 238    3:00   0.00   47.2    60    2.0   169     3.7   867.7    0.00 
 238    3:10   0.00   48.3    56    2.5   183     4.1   867.7    0.00 
 238    3:20   0.00   49.0    55    2.9   229     3.9   867.7    0.00 
 238    3:30   0.00   49.6    49    2.6   248     3.3   867.7    0.00 
 238    3:40   0.00   53.1    42    2.5   267     3.3   867.8    0.00 
 238    3:50   0.00   51.9    45    2.1   228     3.2   867.7    0.00 
 238    4:00   0.00   48.9    51    0.8   166     1.8   867.8    0.00 
 238    4:10   0.00   46.8    60    2.3    84     4.7   867.9    0.00 
 238    4:20   0.00   47.1    62    0.7    98     2.6   867.9    0.00 
 238    4:30   0.00   47.3    58    3.1   146     4.2   867.9    0.00 
 238    4:40   0.00   45.7    60    3.0   162     4.6   867.9    0.00 
 238    4:50   0.00   44.0    66    1.4   183     2.2   868.0    0.00 
 238    5:00   0.00   45.1    66    1.1   229     2.2   868.0    0.00 
 238    5:10   0.00   44.4    63    2.6   177     3.9   868.0    0.00 
 238    5:20   0.00   43.6    67    1.9   149     3.9   868.2    0.00 
 238    5:30   0.00   43.2    71    1.2   314     2.3   868.2    0.00 
 238    5:40   0.01   45.6    70    1.3     3     2.6   868.3    0.00 
 238    5:50   0.01   46.8    66    0.3    15     1.0   868.4    0.00 
 238    6:00   0.06   46.9    71    0.1    15     0.9   868.4    0.00 
 238    6:10   0.08   46.7    72    0.7   145     1.9   868.5    0.00 
 238    6:20   0.10   48.6    67    0.4   171     2.0   868.6    0.00 
 238    6:30   0.12   51.2    57    2.0   143     3.2   868.7    0.00 
 238    6:40   0.15   53.0    53    2.1   144     3.2   868.7    0.00 
 238    6:50   0.18   55.5    45    1.8   147     3.3   868.6    0.00 
 238    7:00   0.20   58.0    41    1.7   129     2.8   868.6    0.00 
 238    7:10   0.23   60.5    32    0.9   134     2.7   868.5    0.00 
 238    7:20   0.26   63.9    30    0.0   134     0.1   868.5    0.00 
 238    7:30   0.29   63.6    32    0.0   110     0.4   868.5    0.00 
 238    7:40   0.32   63.6    32    0.7   238     1.6   868.3    0.00 
 238    7:50   0.34   62.3    43    0.8   346     2.0   868.3    0.00 
 238    8:00   0.37   64.3    36    1.1    45     2.2   868.4    0.00 
 238    8:10   0.40   66.4    32    0.5    44     1.8   868.4    0.00 
 238    8:20   0.43   67.4    32    1.3    52     2.0   868.4    0.00 
 238    8:30   0.46   66.5    33    1.4    18     2.4   868.5    0.00 
 238    8:40   0.48   66.0    34    1.1   349     2.6   868.5    0.00 
 238    8:50   0.51   66.5    36    0.8   331     2.1   868.5    0.00 
 238    9:00   0.53   67.5    35    1.3   346     2.6   868.4    0.00 
 238    9:10   0.55   68.9    32    1.7     4     4.0   868.5    0.00 

Return to Sparks, Nevada, UNR Ag Experiment Farm graphs page.


Western Regional Climate Center,wrcc@dri.edu